Latest Coastal Weather Observations for Port Hedland

IDW60701

Issued at 8:55 pm WST Wednesday 27 August 2014 (issued every 10 minutes, with the page automatically refreshed every 10 minutes)

About coastal observations | Map of coastal stations | Coastal observations for WA | Marine services | Other Formats
Station Details ID: 004032 Name: PORT HEDLAND AIRPORT Lat: -20.37 Lon: 118.63 Height: 6.4 m
Data from the previous 72 hours. | See also: Recent months at Port Hedland
Date/Time
WST
Temp

°C
Wind Pressure Rain
since 9am
mm
Weather Cloud Vis
km
Sea
Height
m
Swell
Dir
 
Speed
knots
Gust
knots
hPa Trend Height
m
Period
s
Dir
27/08:30pm 17.7 SSW 2 4 1016.9 - 0.0 - - 10 - - - -
27/08:00pm 18.1 NNE 3 5 1016.4 - 0.0 - - 10 - - - -
27/07:30pm 19.0 NNW 3 4 1016.2 - 0.0 - - 10 - - - -
27/07:00pm 19.9 N 6 7 1015.8 - 0.0 - - 10 - - - -
27/06:30pm 22.2 N 8 9 1015.4 - 0.0 - - 10 - - - -
27/06:00pm 23.3 N 9 12 1015.0 - 0.0 - - 10 - - - -
27/05:30pm 24.8 N 12 16 1015.0 - 0.0 - - 10 - - - -
27/05:00pm 25.6 N 13 17 1014.8 - 0.0 - - 10 - - - -
27/04:30pm 25.9 N 14 19 1014.7 - 0.0 - - 10 - - - -
27/04:00pm 26.7 N 14 19 1014.8 - 0.0 - - 10 - - - -
27/03:30pm 26.5 N 15 19 1014.6 - 0.0 - - 10 - - - -
27/03:00pm 27.0 N 16 20 1014.7 R 0.0 Fine Clear 30 - - - -
27/02:30pm 27.1 NNE 17 21 1014.9 - 0.0 - - 10 - - - -
27/02:00pm 27.3 N 17 22 1015.1 - 0.0 - - 10 - - - -
27/01:30pm 27.2 N 17 22 1015.5 - 0.0 - - 10 - - - -
27/01:00pm 28.0 NNE 15 21 1016.0 - 0.0 - - 10 - - - -
27/12:30pm 27.7 N 15 19 1016.3 - 0.0 - - 10 - - - -
27/12:00pm 29.3 NNE 13 16 1016.8 R 0.0 Fine Clear 30 - - - -
27/11:30am 31.1 NNE 11 14 1017.1 - 0.0 - - 10 - - - -
27/11:00am 29.1 NNE 12 16 1017.6 - 0.0 - - 10 - - - -
27/10:30am 29.7 NE 14 17 1017.7 - 0.0 - - 10 - - - -
27/10:00am 29.4 ENE 14 17 1017.8 - 0.0 - - 10 - - - -
27/09:30am 28.6 ENE 15 18 1018.0 - 0.0 - - 10 - - - -
27/09:00am 27.9 E 16 21 1017.8 F 0.0 Fine Clear 30 - - - -
27/08:30am 26.0 E 14 19 1017.8 - 0.0 - - 10 - - - -
27/08:00am 23.8 ESE 12 15 1017.8 - 0.0 - - 10 - - - -
27/07:30am 20.4 SE 7 11 1017.5 - 0.0 - - 10 - - - -
27/07:00am 16.1 SSE 7 8 1016.9 - 0.0 - - 10 - - - -
27/06:30am 13.9 SSE 6 7 1016.6 - 0.0 - - 10 - - - -
27/06:00am 13.8 SSE 6 7 1016.5 F 0.0 Fine Clear 30 - - - -
27/05:30am 14.3 S 6 7 1016.2 - 0.0 - - 10 - - - -
27/05:00am 14.5 S 6 7 1015.9 - 0.0 - - 10 - - - -
27/04:30am 15.0 S 7 8 1015.8 - 0.0 - - 10 - - - -
27/04:00am 15.2 S 7 8 1015.7 - 0.0 - - 10 - - - -
27/03:30am 15.4 S 7 8 1015.7 - 0.0 - - 10 - - - -
27/03:00am 15.4 S 7 9 1015.8 - 0.0 - - 10 - - - -
27/02:30am 15.7 S 8 10 1016.0 - 0.0 - - 10 - - - -
27/02:00am 15.6 S 8 9 1016.1 - 0.0 - - 10 - - - -
27/01:30am 15.5 S 7 9 1016.2 - 0.0 - - 10 - - - -
27/01:00am 16.0 S 8 9 1016.4 - 0.0 - - 10 - - - -
27/12:30am 16.0 S 8 9 1016.6 - 0.0 - - 10 - - - -
27/12:00am 15.9 S 8 11 1016.7 - 0.0 - - 10 - - - -
 
Date/Time
WST
Temp

°C
Wind Pressure Rain
since 9am
mm
Weather Cloud Vis
km
Sea
Height
m
Swell
Dir
 
Speed
knots
Gust
knots
hPa Trend Height
m
Period
s
Dir
26/11:30pm 15.8 S 7 9 1016.8 - 0.0 - - 10 - - - -
26/11:00pm 16.4 S 6 8 1016.7 - 0.0 - - 10 - - - -
26/10:30pm 16.7 S 7 9 1016.9 - 0.0 - - 10 - - - -
26/10:00pm 16.5 S 6 7 1017.0 - 0.0 - - 10 - - - -
26/09:30pm 17.6 S 5 6 1017.1 - 0.0 - - 10 - - - -
26/09:00pm 17.2 S 4 5 1017.1 - 0.0 - - 10 - - - -
26/08:30pm 18.5 W 2 5 1017.1 - 0.0 - - 10 - - - -
26/08:00pm 18.8 CALM 0 0 1016.9 - 0.0 - - 10 - - - -
26/07:30pm 19.3 NNW 3 4 1016.7 - 0.0 - - 10 - - - -
26/07:00pm 20.1 NNW 4 5 1016.4 - 0.0 - - 10 - - - -
26/06:30pm 21.1 NNW 4 6 1016.0 - 0.0 - - 10 - - - -
26/06:00pm 22.4 NNW 6 7 1015.7 - 0.0 - - 10 - - - -
26/05:30pm 25.4 N 9 13 1015.2 - 0.0 - - 10 - - - -
26/05:00pm 26.8 N 9 11 1015.1 - 0.0 - - 10 - - - -
26/04:30pm 26.9 N 12 15 1015.2 - 0.0 - - 10 - - - -
26/04:00pm 27.3 N 14 21 1015.1 - 0.0 - - 10 - - - -
26/03:30pm 27.9 NNE 16 21 1015.2 - 0.0 - - 10 - - - -
26/03:00pm 28.3 NNE 15 19 1015.3 F 0.0 Fine Clear 30 - - - -
26/02:30pm 29.4 NNE 16 22 1015.6 - 0.0 - - 10 - - - -
26/02:00pm 29.3 NNE 17 23 1015.8 - 0.0 - - 10 - - - -
26/01:30pm 28.4 NNE 16 22 1016.3 - 0.0 - - 10 - - - -
26/01:00pm 29.5 NNE 15 21 1016.6 - 0.0 - - 10 - - - -
26/12:30pm 30.6 NNE 14 19 1017.1 - 0.0 - - 10 - - - -
26/12:00pm 29.9 NNE 13 16 1017.6 F 0.0 Fine Clear 30 - - - -
26/11:30am 31.7 ENE 14 18 1018.3 - 0.0 - - 10 - - - -
26/11:00am 30.7 ENE 14 19 1018.9 - 0.0 - - 10 - - - -
26/10:30am 29.7 ENE 15 19 1019.4 - 0.0 - - 10 - - - -
26/10:00am 29.4 ENE 18 25 1019.5 - 0.0 - - 10 - - - -
26/09:30am 28.6 E 19 23 1019.6 - 0.0 - - 10 - - - -
26/09:00am 27.9 E 17 22 1019.6 F 0.0 Fine Clear 30 - - - -
26/08:30am 26.1 E 15 24 1019.7 - 0.0 - - 10 - - - -
26/08:00am 24.1 ESE 16 21 1019.5 - 0.0 - - 10 - - - -
26/07:30am 22.4 ESE 12 16 1019.2 - 0.0 - - 10 - - - -
26/07:00am 19.0 SE 9 12 1018.9 - 0.0 - - 10 - - - -
26/06:30am 17.5 SE 9 11 1018.5 - 0.0 - - 10 - - - -
26/06:00am 17.2 SE 8 11 1018.3 F 0.0 Fine Clear 30 - - - -
26/05:30am 14.9 SE 7 9 1018.2 - 0.0 - - 10 - - - -
26/05:00am 14.8 SSE 8 9 1018.2 - 0.0 - - 10 - - - -
26/04:30am 14.6 SSE 7 8 1018.1 - 0.0 - - 10 - - - -
26/04:00am 14.9 S 6 8 1017.9 - 0.0 - - 10 - - - -
26/03:30am 14.7 S 6 7 1017.9 - 0.0 - - 10 - - - -
26/03:00am 15.5 S 7 8 1018.0 - 0.0 - - 10 - - - -
26/02:30am 15.8 S 6 7 1018.0 - 0.0 - - 10 - - - -
26/02:00am 16.4 S 7 9 1018.2 - 0.0 - - 10 - - - -
26/01:30am 16.7 S 7 9 1018.3 - 0.0 - - 10 - - - -
26/01:00am 16.4 S 7 8 1018.5 - 0.0 - - 10 - - - -
26/12:30am 16.6 S 7 9 1018.6 - 0.0 - - 10 - - - -
26/12:00am 16.4 S 4 6 1018.8 - 0.0 - - 10 - - - -
 
Date/Time
WST
Temp

°C
Wind Pressure Rain
since 9am
mm
Weather Cloud Vis
km
Sea
Height
m
Swell
Dir
 
Speed
knots
Gust
knots
hPa Trend Height
m
Period
s
Dir
25/11:30pm 15.7 S 6 7 1018.8 - 0.0 - - 10 - - - -
25/11:00pm 16.8 S 6 7 1018.7 - 0.0 - - 10 - - - -
25/10:30pm 16.9 S 4 6 1018.7 - 0.0 - - 10 - - - -
25/10:00pm 16.7 S 4 7 1018.8 - 0.0 - - 10 - - - -
25/09:30pm 18.1 S 5 6 1018.8 - 0.0 - - 10 - - - -
25/09:00pm 18.2 S 5 6 1018.8 - 0.0 - - 10 - - - -
25/08:30pm 18.7 S 5 6 1018.7 - 0.0 - - 10 - - - -
25/08:00pm 20.5 ESE 4 5 1018.3 - 0.0 - - 10 - - - -
25/07:30pm 21.3 NE 4 5 1017.9 - 0.0 - - 10 - - - -
25/07:00pm 22.4 NNE 5 8 1017.5 - 0.0 - - 10 - - - -
25/06:30pm 23.3 NNE 8 10 1017.1 - 0.0 - - 10 - - - -
25/06:00pm 24.2 NNE 9 11 1016.8 - 0.0 - - 10 - - - -
25/05:30pm 25.7 NNE 11 15 1016.6 - 0.0 - - 10 - - - -
25/05:00pm 26.7 NNE 13 16 1016.6 - 0.0 - - 10 - - - -
25/04:30pm 27.1 NNE 14 18 1016.4 - 0.0 - - 10 - - - -
25/04:00pm 28.2 NNE 15 19 1016.2 - 0.0 - - 10 - - - -
25/03:30pm 28.5 NNE 15 19 1016.1 - 0.0 - - 10 - - - -
25/03:00pm 29.5 NNE 15 20 1016.2 R 0.0 Fine Clear 30 - - - -
25/02:30pm 29.7 NNE 15 22 1016.3 - 0.0 - - 10 - - - -
25/02:00pm 29.5 NNE 15 18 1016.5 - 0.0 - - 10 - - - -
25/01:30pm 29.8 NNE 14 18 1017.0 - 0.0 - - 10 - - - -
25/01:00pm 30.2 N 13 16 1017.4 - 0.0 - - 10 - - - -
25/12:30pm 32.7 NE 15 21 1017.7 - 0.0 - - 10 - - - -
25/12:00pm 32.5 E 16 19 1018.2 F 0.0 Fine Clear 30 - - - -
25/11:53am 32.3 ENE 15 25 1018.4 - 0.0 - - 10 - - - -
25/11:30am 32.5 E 17 26 1018.8 - 0.0 - - 10 - - - -
25/11:00am 31.9 E 21 29 1019.3 - 0.0 - - 10 - - - -
25/10:30am 31.1 E 20 28 1019.8 - 0.0 - - 10 - - - -
25/10:00am 30.7 E 16 23 1019.9 - 0.0 - - 10 - - - -
25/09:30am 29.4 E 18 23 1020.1 - 0.0 - - 10 - - - -
25/09:00am 28.3 E 17 24 1019.9 F 0.0 Fine Clear 30 - - - -
25/08:30am 26.4 ESE 17 23 1019.7 - 0.0 - - 10 - - - -
25/08:00am 24.4 ESE 16 21 1019.6 - 0.0 - - 10 - - - -
25/07:30am 22.4 ESE 13 17 1019.4 - 0.0 - - 10 - - - -
25/07:00am 19.8 ESE 9 12 1019.3 - 0.0 - - 10 - - - -
25/06:30am 18.7 SE 9 12 1019.2 - 0.0 - - 10 - - - -
25/06:00am 17.6 SE 9 12 1019.0 F 0.0 Fine Clear 30 - - - -
25/05:30am 16.6 SE 8 11 1018.8 - 0.0 - - 10 - - - -
25/05:00am 16.8 SE 9 11 1018.6 - 0.0 - - 10 - - - -
25/04:30am 15.6 SSE 8 10 1018.6 - 0.0 - - 10 - - - -
25/04:00am 15.5 SSE 8 9 1018.5 - 0.0 - - 10 - - - -
25/03:30am 16.1 SSE 8 9 1018.4 - 0.0 - - 10 - - - -
25/03:00am 16.3 SE 8 10 1018.5 - 0.0 - - 10 - - - -
25/02:30am 16.9 SE 7 11 1018.7 - 0.0 - - 10 - - - -
25/02:00am 16.2 SSE 7 9 1018.9 - 0.0 - - 10 - - - -
25/01:30am 16.3 SSE 7 8 1019.1 - 0.0 - - 10 - - - -
25/01:00am 15.4 S 6 6 1019.2 - 0.0 - - 10 - - - -
25/12:30am 16.4 S 5 6 1019.4 - 0.0 - - 10 - - - -
25/12:00am 15.9 S 5 6 1019.5 - 0.0 - - 10 - - - -
 
Date/Time
WST
Temp

°C
Wind Pressure Rain
since 9am
mm
Weather Cloud Vis
km
Sea
Height
m
Swell
Dir
 
Speed
knots
Gust
knots
hPa Trend Height
m
Period
s
Dir
24/11:30pm 17.6 S 7 8 1019.6 - 0.0 - - 10 - - - -
24/11:00pm 17.3 S 6 7 1019.8 - 0.0 - - 10 - - - -
24/10:30pm 17.5 S 4 5 1019.9 - 0.0 - - 10 - - - -
24/10:00pm 17.9 S 6 7 1019.8 - 0.0 - - 10 - - - -
24/09:30pm 19.1 S 6 8 1019.7 - 0.0 - - 10 - - - -
24/09:00pm 18.5 S 5 7 1019.5 - 0.0 - - 10 - - - -

Other Formats:

Comma delimited format used in spreadsheet applications
http://www.bom.gov.au/fwo/IDW60701/IDW60701.94312.axf

JavaScript Object Notation format (JSON) in row-major order
http://www.bom.gov.au/fwo/IDW60701/IDW60701.94312.json